createdAt,value
2023-03-19T00:00:50.110Z,0.00
2023-03-19T00:01:50.168Z,0.00
2023-03-19T00:02:50.218Z,0.00
2023-03-19T00:03:50.226Z,0.00
2023-03-19T00:04:50.095Z,0.00
2023-03-19T00:05:50.095Z,0.00
2023-03-19T00:06:50.121Z,0.00
2023-03-19T00:07:50.068Z,0.00
2023-03-19T00:08:50.093Z,0.00
2023-03-19T00:09:50.116Z,0.00
2023-03-19T00:10:50.051Z,0.00
2023-03-19T00:11:50.095Z,0.00
2023-03-19T00:12:50.058Z,0.00
2023-03-19T00:13:50.659Z,0.00
2023-03-19T00:14:50.004Z,0.00
2023-03-19T00:15:50.023Z,0.00
2023-03-19T00:16:50.067Z,0.00
2023-03-19T00:17:50.041Z,0.00
2023-03-19T00:18:50.039Z,0.00
2023-03-19T00:19:49.980Z,0.00
2023-03-19T00:20:50.064Z,0.00
2023-03-19T00:21:49.979Z,0.00
2023-03-19T00:22:49.981Z,0.00
2023-03-19T00:23:50.067Z,0.00
2023-03-19T00:24:49.942Z,0.00
2023-03-19T00:25:49.936Z,0.00
2023-03-19T00:26:49.929Z,0.00
2023-03-19T00:27:49.953Z,0.00
2023-03-19T00:28:49.912Z,0.00
2023-03-19T00:29:49.926Z,0.00
2023-03-19T00:30:49.939Z,0.00
2023-03-19T00:31:49.885Z,0.00
2023-03-19T00:32:49.962Z,0.00
2023-03-19T00:33:49.891Z,0.00
2023-03-19T00:34:49.904Z,0.00
2023-03-19T00:35:49.905Z,0.00
2023-03-19T00:36:49.863Z,0.00
2023-03-19T00:37:49.866Z,0.00
2023-03-19T00:38:49.847Z,0.00
2023-03-19T00:39:49.837Z,0.00
2023-03-19T00:40:49.835Z,0.00
2023-03-19T00:41:49.821Z,0.00
2023-03-19T00:42:49.864Z,0.00
2023-03-19T00:43:49.853Z,0.00
2023-03-19T00:44:49.800Z,0.00
2023-03-19T00:45:49.819Z,0.00
2023-03-19T00:46:49.784Z,0.00
2023-03-19T00:47:49.804Z,0.00
2023-03-19T00:48:49.779Z,0.00
2023-03-19T00:49:49.879Z,0.00
2023-03-19T00:50:49.766Z,0.00
2023-03-19T00:51:49.739Z,0.00
2023-03-19T00:52:49.744Z,0.00
2023-03-19T00:53:49.734Z,0.00
2023-03-19T00:54:49.756Z,0.00
2023-03-19T00:55:49.728Z,0.00
2023-03-19T00:56:49.712Z,0.00
2023-03-19T00:57:49.741Z,0.00
2023-03-19T00:58:49.704Z,0.00
2023-03-19T00:59:49.695Z,0.00
2023-03-19T01:00:49.681Z,0.00
2023-03-19T01:01:49.810Z,0.00
2023-03-19T01:02:49.683Z,0.00
2023-03-19T01:03:49.675Z,0.00
2023-03-19T01:04:49.749Z,0.00
2023-03-19T01:05:50.516Z,0.00
2023-03-19T01:06:49.639Z,0.00
2023-03-19T01:07:49.676Z,0.00
2023-03-19T01:08:49.634Z,0.00
2023-03-19T01:09:49.653Z,0.00
2023-03-19T01:10:49.614Z,0.00
2023-03-19T01:11:49.603Z,0.00
2023-03-19T01:12:49.628Z,0.00
2023-03-19T01:13:49.590Z,0.00
2023-03-19T01:14:49.602Z,0.00
2023-03-19T01:15:49.574Z,0.00
2023-03-19T01:16:49.571Z,0.00
2023-03-19T01:17:49.583Z,0.00
2023-03-19T01:18:50.559Z,0.00
2023-03-19T01:19:49.559Z,0.00
2023-03-19T01:20:49.539Z,0.00
2023-03-19T01:21:49.533Z,0.00
2023-03-19T01:22:49.564Z,0.00
2023-03-19T01:23:49.511Z,0.00
2023-03-19T01:24:49.520Z,0.00
2023-03-19T01:25:49.543Z,0.00
2023-03-19T01:26:49.506Z,0.00
2023-03-19T01:27:49.516Z,0.00
2023-03-19T01:28:49.490Z,0.00
2023-03-19T01:29:49.483Z,0.00
2023-03-19T01:30:49.507Z,0.00
2023-03-19T01:31:49.467Z,0.00
2023-03-19T01:32:49.482Z,0.00
2023-03-19T01:33:49.450Z,0.00
2023-03-19T01:34:49.443Z,0.00
2023-03-19T01:35:49.469Z,0.00
2023-03-19T01:36:49.438Z,0.00
2023-03-19T01:37:49.442Z,0.00
2023-03-19T01:38:49.413Z,0.00
2023-03-19T01:39:49.424Z,0.00
2023-03-19T01:40:49.403Z,0.00
2023-03-19T01:41:49.408Z,0.00
2023-03-19T01:42:49.412Z,0.00
2023-03-19T01:43:49.384Z,0.00
2023-03-19T01:44:49.376Z,0.00
2023-03-19T01:45:56.813Z,0.00
2023-03-19T01:46:51.459Z,0.00
2023-03-19T01:47:49.377Z,0.00
2023-03-19T01:48:49.412Z,0.00
2023-03-19T01:49:49.344Z,0.00
2023-03-19T01:50:49.332Z,0.00
2023-03-19T01:51:49.344Z,0.00
2023-03-19T01:52:49.338Z,0.00
2023-03-19T01:53:49.327Z,0.00
2023-03-19T01:54:49.306Z,0.00
2023-03-19T01:55:49.305Z,0.00
2023-03-19T01:56:49.291Z,0.00
2023-03-19T01:57:49.316Z,0.00
2023-03-19T01:58:49.279Z,0.00
2023-03-19T01:59:49.280Z,0.00
2023-03-19T02:00:49.267Z,0.00
2023-03-19T02:01:49.426Z,0.00
2023-03-19T02:02:49.275Z,0.00
2023-03-19T02:03:49.261Z,0.00
2023-03-19T02:04:49.347Z,0.00
2023-03-19T02:05:49.239Z,0.00
2023-03-19T02:06:49.236Z,0.00
2023-03-19T02:07:49.470Z,0.00
2023-03-19T02:08:49.201Z,0.00
2023-03-19T02:09:49.220Z,0.00
2023-03-19T02:10:49.198Z,0.00
2023-03-19T02:11:49.209Z,0.00
2023-03-19T02:12:49.256Z,0.00
2023-03-19T02:13:49.185Z,0.00
2023-03-19T02:14:49.186Z,0.00
2023-03-19T02:15:49.214Z,0.00
2023-03-19T02:16:49.150Z,0.00
2023-03-19T02:17:49.188Z,0.00
2023-03-19T02:18:49.165Z,0.00
2023-03-19T02:19:49.138Z,0.00
2023-03-19T02:20:49.128Z,0.00
2023-03-19T02:21:49.123Z,0.00
2023-03-19T02:22:49.130Z,0.00
2023-03-19T02:23:49.109Z,0.00
2023-03-19T02:24:49.108Z,0.00
2023-03-19T02:25:49.111Z,0.00
2023-03-19T02:26:49.082Z,0.00
2023-03-19T02:27:49.105Z,0.00
2023-03-19T02:28:49.084Z,0.00
2023-03-19T02:29:49.477Z,0.00
2023-03-19T02:30:50.058Z,0.00
2023-03-19T02:31:49.084Z,0.00
2023-03-19T02:32:49.093Z,0.00
2023-03-19T02:33:49.043Z,0.00
2023-03-19T02:34:49.045Z,0.00
2023-03-19T02:35:49.053Z,0.00
2023-03-19T02:36:49.031Z,0.00
2023-03-19T02:37:49.067Z,0.00
2023-03-19T02:38:49.011Z,0.00
2023-03-19T02:39:48.996Z,0.00
2023-03-19T02:40:49.003Z,0.00
2023-03-19T02:41:49.007Z,0.00
2023-03-19T02:42:48.999Z,0.00
2023-03-19T02:43:48.985Z,0.00
2023-03-19T02:44:48.971Z,0.00
2023-03-19T02:45:48.964Z,0.00
2023-03-19T02:46:50.004Z,0.00
2023-03-19T02:47:48.966Z,0.00
2023-03-19T02:48:48.944Z,0.00
2023-03-19T02:49:48.934Z,0.00
2023-03-19T02:50:48.919Z,0.00
2023-03-19T02:51:48.909Z,0.00
2023-03-19T02:52:48.924Z,0.00
2023-03-19T02:53:48.903Z,0.00
2023-03-19T02:54:48.902Z,0.00
2023-03-19T02:55:48.893Z,0.00
2023-03-19T02:56:48.882Z,0.00
2023-03-19T02:57:48.890Z,0.00
2023-03-19T02:58:48.884Z,0.00
2023-03-19T02:59:48.855Z,0.00
2023-03-19T03:00:48.898Z,0.00
2023-03-19T03:01:48.973Z,0.00
2023-03-19T03:02:48.869Z,0.00
2023-03-19T03:03:48.830Z,0.00
2023-03-19T03:04:48.834Z,0.00
2023-03-19T03:05:48.850Z,0.00
2023-03-19T03:06:48.827Z,0.00
2023-03-19T03:07:48.827Z,0.00
2023-03-19T03:08:48.811Z,0.00
2023-03-19T03:09:48.800Z,0.00
2023-03-19T03:10:48.896Z,0.00
2023-03-19T03:11:48.788Z,0.00
2023-03-19T03:12:48.776Z,0.00
2023-03-19T03:13:48.783Z,0.00
2023-03-19T03:14:48.767Z,0.00
2023-03-19T03:15:48.800Z,0.00
2023-03-19T03:16:48.758Z,0.00
2023-03-19T03:17:48.918Z,0.00
2023-03-19T03:18:48.750Z,0.00
2023-03-19T03:19:48.754Z,0.00
2023-03-19T03:20:48.732Z,0.00
2023-03-19T03:21:48.725Z,0.00
2023-03-19T03:22:48.745Z,0.00
2023-03-19T03:23:48.741Z,0.00
2023-03-19T03:24:48.710Z,0.00
2023-03-19T03:25:48.702Z,0.00
2023-03-19T03:26:48.697Z,0.00
2023-03-19T03:27:48.701Z,0.00
2023-03-19T03:28:48.680Z,0.00
2023-03-19T03:29:48.669Z,0.00
2023-03-19T03:30:48.659Z,0.00
2023-03-19T03:31:48.696Z,0.00
2023-03-19T03:32:48.743Z,0.00
2023-03-19T03:33:48.687Z,0.00
2023-03-19T03:34:48.662Z,0.00
2023-03-19T03:35:48.668Z,0.00
2023-03-19T03:36:48.667Z,0.00
2023-03-19T03:37:48.615Z,0.00
2023-03-19T03:38:48.655Z,0.00
2023-03-19T03:39:48.645Z,0.00
2023-03-19T03:40:48.644Z,0.00
2023-03-19T03:41:48.597Z,0.00
2023-03-19T03:42:49.663Z,0.00
2023-03-19T03:43:48.597Z,0.00
2023-03-19T03:44:48.590Z,0.00
2023-03-19T03:45:48.618Z,0.00
2023-03-19T03:46:48.566Z,0.00
2023-03-19T03:47:48.558Z,0.00
2023-03-19T03:48:48.598Z,0.00
2023-03-19T03:49:48.540Z,0.00
2023-03-19T03:50:48.539Z,0.00
2023-03-19T03:51:48.541Z,0.00
2023-03-19T03:52:48.547Z,0.00
2023-03-19T03:53:48.557Z,0.00
2023-03-19T03:54:48.524Z,0.00
2023-03-19T03:55:48.527Z,0.00
2023-03-19T03:56:48.504Z,0.00
2023-03-19T03:57:48.485Z,0.00
2023-03-19T03:58:48.518Z,0.00
2023-03-19T03:59:48.499Z,0.00
2023-03-19T04:00:48.491Z,0.00
2023-03-19T04:01:48.665Z,0.00
2023-03-19T04:02:48.479Z,0.00
2023-03-19T04:03:48.493Z,0.00
2023-03-19T04:04:48.439Z,0.00
2023-03-19T04:05:48.434Z,0.00
2023-03-19T04:06:48.443Z,0.00
2023-03-19T04:07:48.435Z,0.00
2023-03-19T04:08:48.597Z,0.00
2023-03-19T04:09:48.408Z,0.00
2023-03-19T04:10:48.398Z,0.00
2023-03-19T04:11:51.298Z,0.00
2023-03-19T04:12:48.418Z,0.00
2023-03-19T04:13:48.446Z,0.00
2023-03-19T04:14:48.395Z,0.00
2023-03-19T04:15:48.369Z,0.00
2023-03-19T04:16:48.455Z,0.00
2023-03-19T04:17:48.358Z,0.00
2023-03-19T04:18:48.584Z,0.00
2023-03-19T04:19:48.339Z,0.00
2023-03-19T04:20:48.342Z,0.00
2023-03-19T04:21:48.337Z,0.00
2023-03-19T04:22:48.319Z,0.00
2023-03-19T04:23:48.752Z,0.00
2023-03-19T04:24:48.308Z,0.00
2023-03-19T04:25:48.320Z,0.00
2023-03-19T04:26:48.294Z,0.00
2023-03-19T04:27:48.289Z,0.00
2023-03-19T04:28:48.300Z,0.00
2023-03-19T04:29:48.290Z,0.00
2023-03-19T04:30:48.335Z,0.00
2023-03-19T04:31:48.250Z,0.00
2023-03-19T04:32:48.296Z,0.00
2023-03-19T04:33:48.288Z,0.00
2023-03-19T04:34:48.265Z,0.00
2023-03-19T04:35:48.267Z,0.00
2023-03-19T04:36:48.230Z,0.00
2023-03-19T04:37:49.044Z,0.00
2023-03-19T04:38:48.248Z,0.00
2023-03-19T04:39:48.199Z,0.00
2023-03-19T04:40:48.193Z,0.00
2023-03-19T04:41:48.192Z,0.00
2023-03-19T04:42:48.184Z,0.00
2023-03-19T04:43:48.202Z,0.00
2023-03-19T04:44:48.170Z,0.00
2023-03-19T04:45:48.179Z,0.00
2023-03-19T04:46:48.153Z,0.00
2023-03-19T04:47:48.144Z,0.00
2023-03-19T04:48:48.158Z,0.00
2023-03-19T04:49:48.126Z,0.00
2023-03-19T04:50:48.130Z,0.00
2023-03-19T04:51:48.121Z,0.00
2023-03-19T04:52:48.113Z,0.00
2023-03-19T04:53:48.116Z,0.00
2023-03-19T04:54:48.091Z,0.00
2023-03-19T04:55:48.095Z,0.00
2023-03-19T04:56:48.074Z,0.00
2023-03-19T04:57:48.070Z,0.00
2023-03-19T04:58:48.087Z,0.00
2023-03-19T04:59:48.058Z,0.00
2023-03-19T05:00:48.054Z,0.00
2023-03-19T05:01:48.050Z,0.00
2023-03-19T05:02:48.039Z,0.00
2023-03-19T05:03:48.070Z,0.00
2023-03-19T05:04:48.015Z,0.00
2023-03-19T05:05:48.014Z,0.00
2023-03-19T05:06:48.005Z,0.00
2023-03-19T05:07:48.002Z,0.00
2023-03-19T05:08:48.014Z,0.00
2023-03-19T05:09:47.989Z,0.00
2023-03-19T05:10:47.983Z,0.00
2023-03-19T05:11:47.966Z,0.00
2023-03-19T05:12:47.966Z,0.00
2023-03-19T05:13:47.977Z,0.00
2023-03-19T05:14:47.954Z,0.00
2023-03-19T05:15:48.001Z,0.00
2023-03-19T05:16:47.934Z,0.00
2023-03-19T05:17:47.934Z,0.00
2023-03-19T05:18:47.933Z,0.00
2023-03-19T05:19:47.913Z,0.00
2023-03-19T05:20:47.909Z,0.00
2023-03-19T05:21:47.925Z,0.00
2023-03-19T05:22:47.887Z,0.00
2023-03-19T05:23:47.885Z,0.00
2023-03-19T05:24:47.875Z,0.00
2023-03-19T05:25:47.875Z,0.00
2023-03-19T05:26:47.882Z,0.00
2023-03-19T05:27:47.859Z,0.00
2023-03-19T05:28:47.874Z,0.00
2023-03-19T05:29:47.845Z,0.00
2023-03-19T05:30:47.912Z,0.00
2023-03-19T05:31:47.845Z,0.00
2023-03-19T05:32:47.885Z,0.00
2023-03-19T05:33:47.849Z,0.00
2023-03-19T05:34:47.823Z,0.00
2023-03-19T05:35:47.833Z,0.00
2023-03-19T05:36:47.802Z,0.00
2023-03-19T05:37:47.861Z,0.00
2023-03-19T05:38:47.812Z,0.00
2023-03-19T05:39:47.776Z,5.62
2023-03-19T05:40:47.766Z,5.62
2023-03-19T05:41:47.778Z,5.62
2023-03-19T05:42:47.764Z,5.62
2023-03-19T05:43:47.853Z,5.62
2023-03-19T05:44:47.746Z,5.62
2023-03-19T05:45:47.747Z,5.62
2023-03-19T05:46:47.771Z,11.25
2023-03-19T05:47:47.736Z,11.25
2023-03-19T05:48:47.740Z,11.25
2023-03-19T05:49:47.711Z,11.25
2023-03-19T05:50:47.718Z,11.25
2023-03-19T05:51:47.708Z,11.25
2023-03-19T05:52:47.693Z,16.88
2023-03-19T05:53:47.708Z,16.88
2023-03-19T05:54:47.670Z,16.88
2023-03-19T05:55:47.686Z,16.88
2023-03-19T05:56:47.658Z,22.50
2023-03-19T05:57:47.666Z,22.50
2023-03-19T05:58:47.665Z,22.50
2023-03-19T05:59:47.630Z,22.50
2023-03-19T06:00:47.628Z,22.50
2023-03-19T06:01:47.643Z,22.50
2023-03-19T06:02:47.738Z,28.12
2023-03-19T06:03:47.712Z,28.12
2023-03-19T06:04:47.600Z,28.12
2023-03-19T06:05:47.597Z,28.12
2023-03-19T06:06:47.584Z,33.75
2023-03-19T06:07:47.591Z,33.75
2023-03-19T06:08:47.599Z,33.75
2023-03-19T06:09:47.569Z,33.75
2023-03-19T06:10:47.544Z,33.75
2023-03-19T06:11:48.546Z,33.75
2023-03-19T06:12:48.542Z,33.75
2023-03-19T06:13:47.594Z,33.75
2023-03-19T06:14:47.545Z,39.38
2023-03-19T06:15:47.555Z,39.38
2023-03-19T06:16:47.519Z,39.38
2023-03-19T06:17:47.510Z,39.38
2023-03-19T06:18:47.519Z,45.00
2023-03-19T06:19:47.500Z,45.00
2023-03-19T06:20:47.499Z,45.00
2023-03-19T06:21:47.487Z,45.00
2023-03-19T06:22:47.469Z,45.00
2023-03-19T06:23:47.489Z,45.00
2023-03-19T06:24:47.455Z,45.00
2023-03-19T06:25:47.463Z,50.62
2023-03-19T06:26:47.450Z,50.62
2023-03-19T06:27:47.449Z,50.62
2023-03-19T06:28:47.448Z,56.25
2023-03-19T06:29:47.536Z,56.25
2023-03-19T06:30:47.423Z,61.88
2023-03-19T06:31:47.469Z,61.88
2023-03-19T06:32:47.494Z,61.88
2023-03-19T06:33:47.440Z,67.50
2023-03-19T06:34:47.414Z,67.50
2023-03-19T06:35:47.397Z,67.50
2023-03-19T06:36:47.378Z,73.12
2023-03-19T06:37:47.363Z,73.12
2023-03-19T06:38:47.395Z,73.12
2023-03-19T06:39:47.349Z,78.75
2023-03-19T06:40:47.356Z,78.75
2023-03-19T06:41:47.717Z,78.75
2023-03-19T06:42:47.349Z,78.75
2023-03-19T06:43:47.346Z,84.38
2023-03-19T06:44:47.321Z,84.38
2023-03-19T06:45:47.330Z,90.00
2023-03-19T06:46:47.311Z,90.00
2023-03-19T06:47:47.308Z,95.62
2023-03-19T06:48:47.315Z,95.62
2023-03-19T06:49:47.295Z,95.62
2023-03-19T06:50:47.278Z,95.62
2023-03-19T06:51:47.364Z,95.62
2023-03-19T06:52:47.269Z,101.25
2023-03-19T06:53:47.281Z,101.25
2023-03-19T06:54:47.255Z,101.25
2023-03-19T06:55:47.248Z,106.88
2023-03-19T06:56:47.231Z,112.50
2023-03-19T06:57:47.223Z,106.88
2023-03-19T06:58:47.244Z,106.88
2023-03-19T06:59:47.223Z,112.50
2023-03-19T07:00:47.248Z,112.50
2023-03-19T07:01:47.191Z,112.50
2023-03-19T07:02:47.190Z,112.50
2023-03-19T07:03:47.254Z,112.50
2023-03-19T07:04:47.179Z,112.50
2023-03-19T07:05:47.162Z,118.12
2023-03-19T07:06:47.164Z,118.12
2023-03-19T07:07:47.152Z,118.12
2023-03-19T07:08:47.158Z,123.75
2023-03-19T07:09:47.145Z,129.38
2023-03-19T07:10:47.141Z,129.38
2023-03-19T07:11:47.131Z,140.62
2023-03-19T07:12:47.114Z,163.12
2023-03-19T07:13:47.144Z,168.75
2023-03-19T07:14:47.112Z,168.75
2023-03-19T07:15:47.098Z,174.38
2023-03-19T07:16:47.131Z,174.38
2023-03-19T07:17:47.080Z,174.38
2023-03-19T07:18:47.107Z,174.38
2023-03-19T07:19:47.069Z,174.38
2023-03-19T07:20:47.062Z,174.38
2023-03-19T07:21:47.057Z,174.38
2023-03-19T07:22:47.069Z,174.38
2023-03-19T07:23:47.045Z,174.38
2023-03-19T07:24:47.033Z,174.38
2023-03-19T07:25:47.033Z,180.00
2023-03-19T07:26:47.019Z,174.38
2023-03-19T07:27:47.087Z,180.00
2023-03-19T07:28:47.034Z,180.00
2023-03-19T07:29:47.061Z,180.00
2023-03-19T07:30:47.000Z,180.00
2023-03-19T07:31:47.033Z,174.38
2023-03-19T07:32:46.994Z,168.75
2023-03-19T07:33:47.225Z,174.38
2023-03-19T07:34:46.967Z,180.00
2023-03-19T07:35:46.996Z,180.00
2023-03-19T07:36:46.948Z,180.00
2023-03-19T07:37:46.986Z,185.62
2023-03-19T07:38:46.977Z,191.25
2023-03-19T07:39:46.927Z,196.88
2023-03-19T07:41:00.941Z,196.88
2023-03-19T07:41:48.912Z,202.50
2023-03-19T07:42:46.903Z,202.50
2023-03-19T07:43:46.892Z,196.88
2023-03-19T07:44:46.907Z,196.88
2023-03-19T07:45:46.902Z,196.88
2023-03-19T07:46:46.874Z,202.50
2023-03-19T07:47:49.204Z,202.50
2023-03-19T07:48:46.923Z,202.50
2023-03-19T07:49:46.907Z,202.50
2023-03-19T07:50:46.922Z,208.12
2023-03-19T07:51:46.850Z,213.75
2023-03-19T07:52:46.838Z,213.75
2023-03-19T07:53:46.826Z,213.75
2023-03-19T07:54:46.846Z,225.00
2023-03-19T07:55:46.816Z,219.38
2023-03-19T07:56:46.813Z,225.00
2023-03-19T07:57:46.797Z,225.00
2023-03-19T07:58:46.791Z,225.00
2023-03-19T07:59:46.826Z,230.62
2023-03-19T08:00:46.780Z,236.25
2023-03-19T08:01:46.766Z,236.25
2023-03-19T08:02:46.879Z,241.88
2023-03-19T08:03:46.759Z,241.88
2023-03-19T08:04:47.027Z,247.50
2023-03-19T08:05:46.746Z,241.88
2023-03-19T08:06:46.741Z,241.88
2023-03-19T08:07:46.727Z,247.50
2023-03-19T08:08:46.713Z,241.88
2023-03-19T08:09:46.733Z,247.50
2023-03-19T08:10:46.701Z,247.50
2023-03-19T08:11:46.693Z,241.88
2023-03-19T08:12:46.683Z,236.25
2023-03-19T08:13:46.685Z,225.00
2023-03-19T08:14:46.710Z,213.75
2023-03-19T08:15:46.670Z,202.50
2023-03-19T08:16:46.663Z,202.50
2023-03-19T08:17:46.651Z,208.12
2023-03-19T08:18:46.651Z,208.12
2023-03-19T08:19:46.681Z,208.12
2023-03-19T08:20:46.635Z,208.12
2023-03-19T08:21:46.634Z,213.75
2023-03-19T08:22:46.636Z,213.75
2023-03-19T08:23:46.714Z,219.38
2023-03-19T08:24:46.637Z,225.00
2023-03-19T08:25:46.613Z,225.00
2023-03-19T08:26:46.591Z,236.25
2023-03-19T08:27:46.585Z,236.25
2023-03-19T08:28:46.590Z,264.38
2023-03-19T08:29:46.593Z,241.88
2023-03-19T08:30:46.604Z,241.88
2023-03-19T08:31:46.575Z,236.25
2023-03-19T08:32:46.614Z,236.25
2023-03-19T08:33:46.566Z,230.62
2023-03-19T08:34:49.325Z,230.62
2023-03-19T08:35:46.606Z,230.62
2023-03-19T08:36:46.524Z,230.62
2023-03-19T08:37:46.521Z,225.00
2023-03-19T08:38:46.517Z,225.00
2023-03-19T08:39:46.542Z,225.00
2023-03-19T08:40:46.517Z,225.00
2023-03-19T08:41:46.495Z,225.00
2023-03-19T08:42:46.481Z,230.62
2023-03-19T08:43:46.483Z,230.62
2023-03-19T08:44:46.502Z,230.62
2023-03-19T08:45:46.467Z,236.25
2023-03-19T08:46:46.464Z,241.88
2023-03-19T08:47:46.447Z,241.88
2023-03-19T08:48:46.465Z,253.12
2023-03-19T08:49:46.467Z,253.12
2023-03-19T08:50:46.424Z,258.75
2023-03-19T08:51:46.425Z,281.25
2023-03-19T08:52:46.410Z,275.62
2023-03-19T08:53:46.453Z,286.88
2023-03-19T08:54:46.441Z,292.50
2023-03-19T08:55:46.397Z,320.62
2023-03-19T08:56:46.389Z,320.62
2023-03-19T08:57:46.413Z,286.88
2023-03-19T08:58:46.383Z,281.25
2023-03-19T08:59:46.414Z,292.50
2023-03-19T09:00:46.366Z,281.25
2023-03-19T09:01:46.420Z,281.25
2023-03-19T09:02:46.353Z,281.25
2023-03-19T09:03:46.351Z,281.25
2023-03-19T09:04:46.395Z,286.88
2023-03-19T09:05:46.921Z,281.25
2023-03-19T09:06:46.330Z,275.62
2023-03-19T09:07:46.315Z,270.00
2023-03-19T09:08:47.315Z,270.00
2023-03-19T09:09:46.312Z,264.38
2023-03-19T09:10:46.296Z,264.38
2023-03-19T09:11:46.300Z,264.38
2023-03-19T09:12:48.432Z,264.38
2023-03-19T09:13:47.271Z,270.00
2023-03-19T09:14:46.287Z,270.00
2023-03-19T09:15:46.290Z,270.00
2023-03-19T09:16:46.251Z,264.38
2023-03-19T09:17:46.253Z,264.38
2023-03-19T09:18:46.235Z,264.38
2023-03-19T09:19:46.259Z,264.38
2023-03-19T09:20:46.226Z,270.00
2023-03-19T09:21:46.214Z,275.62
2023-03-19T09:22:46.216Z,286.88
2023-03-19T09:23:46.204Z,292.50
2023-03-19T09:24:46.249Z,303.75
2023-03-19T09:25:46.192Z,309.38
2023-03-19T09:26:46.188Z,315.00
2023-03-19T09:27:46.185Z,315.00
2023-03-19T09:28:46.168Z,326.25
2023-03-19T09:29:46.228Z,326.25
2023-03-19T09:30:46.181Z,326.25
2023-03-19T09:31:46.184Z,348.75
2023-03-19T09:32:46.188Z,337.50
2023-03-19T09:33:46.145Z,343.12
2023-03-19T09:34:46.178Z,343.12
2023-03-19T09:35:46.160Z,348.75
2023-03-19T09:36:46.129Z,354.38
2023-03-19T09:37:46.108Z,354.38
2023-03-19T09:38:46.105Z,343.12
2023-03-19T09:39:46.143Z,331.88
2023-03-19T09:40:46.105Z,331.88
2023-03-19T09:41:46.109Z,331.88
2023-03-19T09:42:46.111Z,326.25
2023-03-19T09:43:46.065Z,337.50
2023-03-19T09:44:46.089Z,348.75
2023-03-19T09:45:46.062Z,348.75
2023-03-19T09:46:46.073Z,354.38
2023-03-19T09:47:46.038Z,354.38
2023-03-19T09:48:46.045Z,348.75
2023-03-19T09:49:46.039Z,343.12
2023-03-19T09:50:46.030Z,337.50
2023-03-19T09:51:46.018Z,337.50
2023-03-19T09:52:46.022Z,337.50
2023-03-19T09:53:46.001Z,331.88
2023-03-19T09:54:46.008Z,331.88
2023-03-19T09:55:46.983Z,343.12
2023-03-19T09:56:45.975Z,343.12
2023-03-19T09:57:45.972Z,331.88
2023-03-19T09:58:45.960Z,331.88
2023-03-19T09:59:45.962Z,331.88
2023-03-19T10:00:45.959Z,315.00
2023-03-19T10:01:45.993Z,331.88
2023-03-19T10:02:45.943Z,326.25
2023-03-19T10:03:45.985Z,315.00
2023-03-19T10:04:45.936Z,320.62
2023-03-19T10:05:45.932Z,326.25
2023-03-19T10:06:45.904Z,326.25
2023-03-19T10:07:45.898Z,315.00
2023-03-19T10:08:45.905Z,298.12
2023-03-19T10:09:45.894Z,303.75
2023-03-19T10:10:45.915Z,303.75
2023-03-19T10:11:45.876Z,298.12
2023-03-19T10:12:45.913Z,303.75
2023-03-19T10:13:45.859Z,303.75
2023-03-19T10:14:45.926Z,303.75
2023-03-19T10:15:45.839Z,309.38
2023-03-19T10:16:45.832Z,309.38
2023-03-19T10:17:45.814Z,309.38
2023-03-19T10:18:46.109Z,303.75
2023-03-19T10:19:45.888Z,315.00
2023-03-19T10:20:45.803Z,320.62
2023-03-19T10:21:45.800Z,326.25
2023-03-19T10:22:45.804Z,326.25
2023-03-19T10:23:45.786Z,326.25
2023-03-19T10:24:45.794Z,331.88
2023-03-19T10:25:45.791Z,331.88
2023-03-19T10:26:45.780Z,331.88
2023-03-19T10:27:45.797Z,331.88
2023-03-19T10:28:45.773Z,326.25
2023-03-19T10:29:45.750Z,320.62
2023-03-19T10:30:46.404Z,303.75
2023-03-19T10:31:45.764Z,309.38
2023-03-19T10:32:46.481Z,303.75
2023-03-19T10:33:45.717Z,292.50
2023-03-19T10:34:45.766Z,298.12
2023-03-19T10:35:45.726Z,298.12
2023-03-19T10:36:45.690Z,298.12
2023-03-19T10:37:45.689Z,298.12
2023-03-19T10:38:45.692Z,298.12
2023-03-19T10:39:45.709Z,286.88
2023-03-19T10:40:45.683Z,275.62
2023-03-19T10:41:45.656Z,270.00
2023-03-19T10:42:45.678Z,270.00
2023-03-19T10:43:45.643Z,292.50
2023-03-19T10:44:45.658Z,298.12
2023-03-19T10:45:45.644Z,309.38
2023-03-19T10:46:45.634Z,292.50
2023-03-19T10:47:45.612Z,298.12
2023-03-19T10:48:45.612Z,281.25
2023-03-19T10:49:45.647Z,309.38
2023-03-19T10:50:45.599Z,275.62
2023-03-19T10:51:45.628Z,275.62
2023-03-19T10:52:45.579Z,331.88
2023-03-19T10:53:45.658Z,286.88
2023-03-19T10:54:46.027Z,298.12
2023-03-19T10:55:45.670Z,393.75
2023-03-19T10:56:45.552Z,315.00
2023-03-19T10:57:45.549Z,354.38
2023-03-19T10:58:45.547Z,309.38
2023-03-19T10:59:45.549Z,298.12
2023-03-19T11:00:45.592Z,326.25
2023-03-19T11:01:45.518Z,382.50
2023-03-19T11:02:45.540Z,410.62
2023-03-19T11:03:45.554Z,405.00
2023-03-19T11:04:45.519Z,393.75
2023-03-19T11:05:45.529Z,286.88
2023-03-19T11:06:45.498Z,281.25
2023-03-19T11:07:45.474Z,286.88
2023-03-19T11:08:45.463Z,348.75
2023-03-19T11:09:45.464Z,399.38
2023-03-19T11:10:45.491Z,393.75
2023-03-19T11:11:45.444Z,382.50
2023-03-19T11:12:45.478Z,376.88
2023-03-19T11:13:45.431Z,326.25
2023-03-19T11:14:45.429Z,331.88
2023-03-19T11:15:45.498Z,264.38
2023-03-19T11:16:45.477Z,264.38
2023-03-19T11:17:45.418Z,241.88
2023-03-19T11:18:45.404Z,241.88
2023-03-19T11:19:45.411Z,247.50
2023-03-19T11:20:45.397Z,264.38
2023-03-19T11:21:46.334Z,286.88
2023-03-19T11:22:45.408Z,360.00
2023-03-19T11:23:45.361Z,438.75
2023-03-19T11:24:45.613Z,376.88
2023-03-19T11:25:45.497Z,309.38
2023-03-19T11:26:45.371Z,298.12
2023-03-19T11:27:45.758Z,292.50
2023-03-19T11:28:45.350Z,292.50
2023-03-19T11:29:45.326Z,286.88
2023-03-19T11:30:45.324Z,286.88
2023-03-19T11:31:45.338Z,292.50
2023-03-19T11:32:45.398Z,298.12
2023-03-19T11:33:45.285Z,393.75
2023-03-19T11:34:45.286Z,399.38
2023-03-19T11:35:45.371Z,354.38
2023-03-19T11:36:45.273Z,309.38
2023-03-19T11:37:45.262Z,303.75
2023-03-19T11:38:45.252Z,309.38
2023-03-19T11:39:45.252Z,315.00
2023-03-19T11:40:45.298Z,320.62
2023-03-19T11:41:45.259Z,331.88
2023-03-19T11:42:45.228Z,337.50
2023-03-19T11:43:45.214Z,371.25
2023-03-19T11:44:45.231Z,331.88
2023-03-19T11:45:45.288Z,320.62
2023-03-19T11:46:45.200Z,331.88
2023-03-19T11:47:45.193Z,427.50
2023-03-19T11:48:45.190Z,416.25
2023-03-19T11:49:45.180Z,433.12
2023-03-19T11:50:47.142Z,337.50
2023-03-19T11:51:45.161Z,388.12
2023-03-19T11:52:45.150Z,315.00
2023-03-19T11:53:45.147Z,298.12
2023-03-19T11:54:45.146Z,281.25
2023-03-19T11:55:45.153Z,275.62
2023-03-19T11:56:45.129Z,264.38
2023-03-19T11:57:45.119Z,264.38
2023-03-19T11:58:45.120Z,258.75
2023-03-19T11:59:45.116Z,258.75
2023-03-19T12:00:45.133Z,253.12
2023-03-19T12:01:45.097Z,253.12
2023-03-19T12:02:45.127Z,247.50
2023-03-19T12:03:45.145Z,247.50
2023-03-19T12:04:45.074Z,258.75
2023-03-19T12:05:45.078Z,270.00
2023-03-19T12:06:45.064Z,281.25
2023-03-19T12:07:45.061Z,292.50
2023-03-19T12:08:45.067Z,281.25
2023-03-19T12:09:45.039Z,281.25
2023-03-19T12:10:45.068Z,275.62
2023-03-19T12:11:45.029Z,281.25
2023-03-19T12:12:45.022Z,286.88
2023-03-19T12:13:45.016Z,298.12
2023-03-19T12:14:45.062Z,309.38
2023-03-19T12:15:45.349Z,382.50
2023-03-19T12:16:46.321Z,343.12
2023-03-19T12:17:45.990Z,399.38
2023-03-19T12:18:44.974Z,354.38
2023-03-19T12:19:44.963Z,348.75
2023-03-19T12:20:44.991Z,348.75
2023-03-19T12:21:44.966Z,331.88
2023-03-19T12:22:44.949Z,326.25
2023-03-19T12:23:44.948Z,326.25
2023-03-19T12:24:44.999Z,326.25
2023-03-19T12:25:44.967Z,326.25
2023-03-19T12:26:45.993Z,320.62
2023-03-19T12:27:45.054Z,326.25
2023-03-19T12:28:44.895Z,303.75
2023-03-19T12:29:44.931Z,315.00
2023-03-19T12:30:45.937Z,309.38
2023-03-19T12:31:44.880Z,326.25
2023-03-19T12:32:44.897Z,343.12
2023-03-19T12:33:44.862Z,399.38
2023-03-19T12:34:44.862Z,365.62
2023-03-19T12:35:44.951Z,331.88
2023-03-19T12:36:44.842Z,320.62
2023-03-19T12:37:44.850Z,315.00
2023-03-19T12:38:44.841Z,315.00
2023-03-19T12:39:44.822Z,309.38
2023-03-19T12:40:44.851Z,303.75
2023-03-19T12:41:44.826Z,298.12
2023-03-19T12:42:44.830Z,298.12
2023-03-19T12:43:44.804Z,292.50
2023-03-19T12:44:44.796Z,320.62
2023-03-19T12:45:44.806Z,298.12
2023-03-19T12:46:44.843Z,264.38
2023-03-19T12:47:44.782Z,253.12
2023-03-19T12:48:44.769Z,270.00
2023-03-19T12:49:44.756Z,320.62
2023-03-19T12:50:44.765Z,247.50
2023-03-19T12:51:44.733Z,241.88
2023-03-19T12:52:44.722Z,219.38